PHBVL EHRD-EHRD
Flight info
| Callsign | PHBVL |
|---|---|
| Flight time | 0h 5m |
| Altitude | 1500 |
| Route | EHRD VFR CIRCUITS |
| Aircraft | C172/L-SFG/C |
Departure
| Time | 2026-05-04 15:17 |
|---|---|
| Airport | Rotterdam The Hague Airport (EHRD) |
Arrival
| Time | 2026-05-04 15:22 |
|---|---|
| Airport | Rotterdam The Hague Airport (EHRD) |
| Time | Latitude | Longitude | Altitude | Speed | Heading |
|---|---|---|---|---|---|
| 2026-05-04 14:55 | 51.94917 | 4.42704 | -11 ft | 0 kts | 326° |
| 2026-05-04 15:07 | 51.94953 | 4.42698 | -12 ft | 14 kts | 32° |
| 2026-05-04 15:08 | 51.95016 | 4.42800 | -12 ft | 11 kts | 58° |
| 2026-05-04 15:08 | 51.95057 | 4.42909 | -12 ft | 13 kts | 58° |
| 2026-05-04 15:08 | 51.95119 | 4.43061 | -11 ft | 17 kts | 52° |
| 2026-05-04 15:08 | 51.95179 | 4.43097 | -10 ft | 9 kts | 348° |
| 2026-05-04 15:09 | 51.95199 | 4.43099 | -10 ft | 0 kts | 3° |
| 2026-05-04 15:16 | 51.95221 | 4.43099 | -10 ft | 14 kts | 4° |
| 2026-05-04 15:16 | 51.95567 | 4.43726 | -3 ft | 74 kts | 50° |
| 2026-05-04 15:17 | 51.95814 | 4.44375 | 239 ft | 65 kts | 51° |
| 2026-05-04 15:17 | 51.96278 | 4.45505 | 632 ft | 61 kts | 46° |
| 2026-05-04 15:17 | 51.96612 | 4.46247 | 545 ft | 87 kts | 55° |
| 2026-05-04 15:18 | 51.97077 | 4.46420 | 461 ft | 75 kts | 322° |
| 2026-05-04 15:18 | 51.97456 | 4.45912 | 412 ft | 70 kts | 322° |
| 2026-05-04 15:18 | 51.97810 | 4.45370 | 365 ft | 68 kts | 322° |
| 2026-05-04 15:19 | 51.97391 | 4.44027 | 382 ft | 73 kts | 231° |
| 2026-05-04 15:19 | 51.97045 | 4.43421 | 395 ft | 76 kts | 231° |
| 2026-05-04 15:19 | 51.96370 | 4.42033 | 446 ft | 76 kts | 236° |
| 2026-05-04 15:20 | 51.96059 | 4.41369 | 453 ft | 73 kts | 239° |
| 2026-05-04 15:20 | 51.95783 | 4.40705 | 467 ft | 72 kts | 238° |
| 2026-05-04 15:20 | 51.95477 | 4.39995 | 433 ft | 81 kts | 237° |
| 2026-05-04 15:20 | 51.95075 | 4.39587 | 492 ft | 71 kts | 165° |
| 2026-05-04 15:21 | 51.94634 | 4.39909 | 457 ft | 65 kts | 146° |
| 2026-05-04 15:21 | 51.94266 | 4.40320 | 410 ft | 69 kts | 113° |
| 2026-05-04 15:21 | 51.94672 | 4.41527 | 236 ft | 67 kts | 53° |
| 2026-05-04 15:22 | 51.94917 | 4.42136 | 153 ft | 63 kts | 51° |
| 2026-05-04 15:22 | 51.95153 | 4.42685 | 71 ft | 59 kts | 54° |
| 2026-05-04 15:22 | 51.95554 | 4.43678 | -11 ft | 44 kts | 59° |
| 2026-05-04 15:23 | 51.95774 | 4.44248 | 68 ft | 61 kts | 51° |
| 2026-05-04 15:23 | 51.96002 | 4.44861 | 191 ft | 69 kts | 52° |
| 2026-05-04 15:23 | 51.96270 | 4.45541 | 345 ft | 72 kts | 58° |
| 2026-05-04 15:23 | 51.96523 | 4.46253 | 518 ft | 76 kts | 61° |
| 2026-05-04 15:24 | 51.97338 | 4.46242 | 579 ft | 75 kts | 320° |
| 2026-05-04 15:24 | 51.97872 | 4.44967 | 493 ft | 72 kts | 252° |
| 2026-05-04 15:25 | 51.97509 | 4.44353 | 418 ft | 78 kts | 234° |
| 2026-05-04 15:25 | 51.97180 | 4.43666 | 421 ft | 78 kts | 238° |
| 2026-05-04 15:25 | 51.96851 | 4.42972 | 431 ft | 78 kts | 235° |
| 2026-05-04 15:26 | 51.96163 | 4.41582 | 441 ft | 81 kts | 239° |
| 2026-05-04 15:26 | 51.95841 | 4.40812 | 427 ft | 82 kts | 240° |
| 2026-05-04 15:26 | 51.95188 | 4.39439 | 397 ft | 79 kts | 196° |
| 2026-05-04 15:27 | 51.94721 | 4.39731 | 392 ft | 68 kts | 147° |
| 2026-05-04 15:27 | 51.94390 | 4.40868 | 339 ft | 59 kts | 41° |
| 2026-05-04 15:28 | 51.94834 | 4.41941 | 191 ft | 60 kts | 52° |
| 2026-05-04 15:28 | 51.95063 | 4.42468 | 125 ft | 55 kts | 55° |
| 2026-05-04 15:28 | 51.95481 | 4.43520 | 1 ft | 53 kts | 52° |
| 2026-05-04 15:29 | 51.95672 | 4.43979 | -11 ft | 56 kts | 56° |
| 2026-05-04 15:30 | 51.96642 | 4.46586 | 477 ft | 80 kts | 56° |
| 2026-05-04 15:30 | 51.97951 | 4.46182 | 536 ft | 72 kts | 321° |
| 2026-05-04 15:31 | 51.97963 | 4.44973 | 392 ft | 66 kts | 231° |
| 2026-05-04 15:31 | 51.97629 | 4.44435 | 373 ft | 70 kts | 234° |
| 2026-05-04 15:32 | 51.96583 | 4.42490 | 405 ft | 73 kts | 238° |
| 2026-05-04 15:32 | 51.95969 | 4.41240 | 456 ft | 72 kts | 236° |
| 2026-05-04 15:33 | 51.95350 | 4.40020 | 519 ft | 70 kts | 224° |
| 2026-05-04 15:34 | 51.94592 | 4.41244 | 346 ft | 52 kts | 65° |
| 2026-05-04 15:34 | 51.94770 | 4.41740 | 217 ft | 55 kts | 55° |
| 2026-05-04 15:34 | 51.95181 | 4.42783 | 85 ft | 56 kts | 56° |
| 2026-05-04 15:35 | 51.95602 | 4.43829 | -12 ft | 45 kts | 51° |
| 2026-05-04 15:35 | 51.95753 | 4.44185 | -13 ft | 32 kts | 55° |
| 2026-05-04 15:35 | 51.95860 | 4.44455 | -15 ft | 23 kts | 54° |
| 2026-05-04 15:36 | 51.95864 | 4.44722 | -15 ft | 7 kts | 145° |
| 2026-05-04 15:36 | 51.95844 | 4.44743 | -15 ft | 0 kts | 142° |
| 2026-05-04 15:37 | 51.95829 | 4.44758 | -15 ft | 10 kts | 150° |
| 2026-05-04 15:37 | 51.95770 | 4.44717 | -16 ft | 11 kts | 234° |
| 2026-05-04 15:37 | 51.95707 | 4.44562 | -16 ft | 21 kts | 234° |
| 2026-05-04 15:37 | 51.95608 | 4.44317 | -14 ft | 29 kts | 239° |
| 2026-05-04 15:38 | 51.95495 | 4.44038 | -12 ft | 30 kts | 237° |
| 2026-05-04 15:38 | 51.95374 | 4.43734 | -12 ft | 33 kts | 237° |
| 2026-05-04 15:38 | 51.95264 | 4.43455 | -10 ft | 21 kts | 239° |
| 2026-05-04 15:38 | 51.95206 | 4.43312 | -9 ft | 10 kts | 238° |
| 2026-05-04 15:39 | 51.95178 | 4.43241 | -9 ft | 5 kts | 236° |
| 2026-05-04 15:39 | 51.95158 | 4.43193 | -9 ft | 5 kts | 236° |
| 2026-05-04 15:39 | 51.95034 | 4.42853 | -12 ft | 26 kts | 237° |
| 2026-05-04 15:40 | 51.94945 | 4.42677 | -11 ft | 13 kts | 241° |
| 2026-05-04 15:40 | 51.94921 | 4.42628 | -10 ft | 1 kts | 226° |
| 2026-05-04 15:40 | 51.94926 | 4.42607 | -10 ft | 0 kts | 333° |